Time;durP1;ratioP1;P1;durP2;ratioP2;P2;SDS_P1;SDS_P2;PMS_P1;PMS_P2;Temp;Humidity;BMP_temperature;BMP_pressure;BME280_temperature;BME280_humidity;BME280_pressure;Samples;Min_cycle;Max_cycle;Signal;HPM_P1;HPM_P2
2021/08/12 00:01:22;;;;;;;2.13;1.35;;;14.90;99.90;;;;;;5052628;28;20032;-73
2021/08/12 00:03:49;;;;;;;2.80;1.00;;;14.90;99.90;;;;;;5053086;28;20075;-73
2021/08/12 00:06:15;;;;;;;6.50;1.40;;;14.90;99.90;;;;;;5052590;28;20021;-73
2021/08/12 00:08:41;;;;;;;1.23;1.13;;;14.80;99.90;;;;;;5052847;28;20075;-73
2021/08/12 00:11:07;;;;;;;1.83;1.25;;;14.80;99.90;;;;;;5052551;28;20021;-73
2021/08/12 00:13:33;;;;;;;1.35;1.10;;;14.70;99.90;;;;;;5051963;28;20027;-73
2021/08/12 00:16:03;;;;;;;1.10;1.00;;;14.70;99.90;;;;;;5052564;28;20100;-73
2021/08/12 00:18:30;;;;;;;1.73;1.05;;;14.70;99.90;;;;;;5052447;28;20029;-74
2021/08/12 00:20:56;;;;;;;2.85;1.10;;;14.60;99.90;;;;;;5052403;28;20053;-73
2021/08/12 00:23:22;;;;;;;3.53;1.30;;;14.60;99.90;;;;;;5052432;28;20051;-73
2021/08/12 00:25:47;;;;;;;2.45;1.20;;;14.60;99.90;;;;;;5052327;28;20021;-75
2021/08/12 00:28:14;;;;;;;1.25;1.10;;;14.50;99.90;;;;;;5052309;28;20029;-74
2021/08/12 00:30:40;;;;;;;1.95;1.25;;;14.50;99.90;;;;;;5052227;28;20087;-74
2021/08/12 00:33:06;;;;;;;1.08;0.88;;;14.40;99.90;;;;;;5052383;28;20037;-74
2021/08/12 00:35:32;;;;;;;1.45;1.05;;;14.40;99.90;;;;;;5052379;28;20094;-74
2021/08/12 00:37:58;;;;;;;1.90;1.20;;;14.30;99.90;;;;;;5052247;28;20472;-74
2021/08/12 00:40:25;;;;;;;3.90;1.20;;;14.30;99.90;;;;;;5052405;28;20389;-74
2021/08/12 00:42:51;;;;;;;1.92;1.10;;;14.30;99.90;;;;;;5052331;28;20108;-74
2021/08/12 00:45:17;;;;;;;2.17;1.30;;;14.30;99.90;;;;;;5052156;28;20430;-74
2021/08/12 00:47:43;;;;;;;1.10;1.00;;;14.20;99.90;;;;;;5052173;28;20052;-74
2021/08/12 00:50:09;;;;;;;2.03;1.20;;;14.20;99.90;;;;;;5051920;28;20049;-74
2021/08/12 00:52:36;;;;;;;3.08;1.20;;;14.20;99.90;;;;;;5051744;28;20489;-73
2021/08/12 00:55:02;;;;;;;2.45;1.00;;;14.10;99.90;;;;;;5052043;28;20025;-74
2021/08/12 00:57:28;;;;;;;2.60;1.10;;;14.10;99.90;;;;;;5052192;28;20416;-74
2021/08/12 00:59:54;;;;;;;2.47;1.35;;;14.10;99.90;;;;;;5052155;28;20017;-74
2021/08/12 01:02:20;;;;;;;2.00;1.10;;;14.10;99.90;;;;;;5051990;28;20087;-74
2021/08/12 01:04:52;;;;;;;1.42;1.25;;;14.10;99.90;;;;;;5052011;28;20029;-74
2021/08/12 01:07:38;;;;;;;2.63;1.20;;;14.10;99.90;;;;;;5051857;28;20029;-73
2021/08/12 01:10:14;;;;;;;1.50;1.10;;;14.00;99.90;;;;;;5052287;28;20028;-73
2021/08/12 01:12:43;;;;;;;4.13;1.20;;;14.00;99.90;;;;;;5051882;28;20033;-73
2021/08/12 01:15:12;;;;;;;1.13;1.10;;;14.00;99.90;;;;;;5052028;28;20017;-73
2021/08/12 01:46:46;;;;;;;1.95;1.63;;;13.80;99.90;;;;;;5054895;28;20112;-72
2021/08/12 01:49:12;;;;;;;1.58;1.15;;;13.80;99.90;;;;;;5055620;28;20021;-73
2021/08/12 01:51:38;;;;;;;2.22;1.30;;;13.80;99.90;;;;;;5054853;28;20045;-73
2021/08/12 01:54:06;;;;;;;4.20;1.15;;;13.70;99.90;;;;;;5055490;28;20032;-72
2021/08/12 01:56:32;;;;;;;1.48;1.02;;;13.70;99.90;;;;;;5055232;28;20100;-72
2021/08/12 01:59:00;;;;;;;2.88;1.23;;;13.70;99.90;;;;;;5055344;28;20224;-72
2021/08/12 02:01:28;;;;;;;2.92;1.40;;;13.70;99.90;;;;;;5055297;28;20090;-72
2021/08/12 02:03:55;;;;;;;1.40;1.30;;;13.70;99.90;;;;;;5054937;28;20029;-72
2021/08/12 02:06:23;;;;;;;11.77;2.10;;;13.60;99.90;;;;;;5055217;28;20033;-72
2021/08/12 02:08:49;;;;;;;1.48;1.38;;;13.60;99.90;;;;;;5055206;28;20143;-72
2021/08/12 02:11:16;;;;;;;2.47;1.15;;;13.60;99.90;;;;;;5055049;28;20086;-72
2021/08/12 02:13:41;;;;;;;2.22;1.10;;;13.60;99.90;;;;;;5054674;28;20120;-72
2021/08/12 02:16:09;;;;;;;1.27;1.17;;;13.60;99.90;;;;;;5055206;28;20096;-72
2021/08/12 02:18:42;;;;;;;1.85;1.48;;;13.50;99.90;;;;;;5054720;28;20032;-71
2021/08/12 02:21:36;;;;;;;2.72;1.23;;;13.50;99.90;;;;;;5055131;28;20025;-75
2021/08/12 02:24:05;;;;;;;3.05;1.17;;;13.50;99.90;;;;;;5054323;28;20033;-75
2021/08/12 02:26:35;;;;;;;3.38;1.40;;;13.40;99.90;;;;;;5054694;28;20427;-75
2021/08/12 02:29:02;;;;;;;2.10;1.30;;;13.40;99.90;;;;;;5054608;28;20445;-75
2021/08/12 02:31:30;;;;;;;2.95;1.23;;;13.40;99.90;;;;;;5054523;28;20672;-74
2021/08/12 02:33:56;;;;;;;1.27;1.20;;;13.40;99.90;;;;;;5054456;28;20453;-75
2021/08/12 02:36:22;;;;;;;1.40;1.30;;;13.30;99.90;;;;;;5053588;28;20057;-75
2021/08/12 02:38:50;;;;;;;2.95;1.40;;;13.30;99.90;;;;;;5054238;28;20059;-76
2021/08/12 02:41:20;;;;;;;1.20;1.10;;;13.30;99.90;;;;;;5054338;28;20104;-74
2021/08/12 02:43:48;;;;;;;1.33;1.23;;;13.30;99.90;;;;;;5054603;28;20041;-74
2021/08/12 02:46:16;;;;;;;1.42;1.20;;;13.30;99.90;;;;;;5054556;28;20029;-73
2021/08/12 02:48:42;;;;;;;1.40;1.20;;;13.30;99.90;;;;;;5054204;28;20147;-75
2021/08/12 02:51:09;;;;;;;5.10;1.33;;;13.30;99.90;;;;;;5053964;28;20041;-77
2021/08/12 02:53:36;;;;;;;2.13;1.10;;;13.20;99.90;;;;;;5054422;28;20029;-77
2021/08/12 02:56:05;;;;;;;4.25;1.38;;;13.20;99.90;;;;;;5054266;28;20021;-75
2021/08/12 02:58:34;;;;;;;1.70;1.00;;;13.20;99.90;;;;;;5053953;28;20463;-76
2021/08/12 03:01:00;;;;;;;3.25;1.40;;;13.20;99.90;;;;;;5053798;28;20044;-76
2021/08/12 03:03:26;;;;;;;2.00;1.20;;;13.20;99.90;;;;;;5052744;28;20025;-76
2021/08/12 03:05:53;;;;;;;3.03;1.80;;;13.20;99.90;;;;;;5054103;28;20112;-76
2021/08/12 03:08:20;;;;;;;1.98;1.10;;;13.10;99.90;;;;;;5054082;28;20040;-78
2021/08/12 03:10:46;;;;;;;1.27;1.15;;;13.10;99.90;;;;;;5053938;28;20086;-76
2021/08/12 03:13:12;;;;;;;4.30;1.30;;;13.10;99.90;;;;;;5053654;28;20040;-75
2021/08/12 03:15:43;;;;;;;1.75;1.10;;;13.10;99.90;;;;;;5054027;28;20032;-74
2021/08/12 03:18:08;;;;;;;2.35;1.00;;;13.10;99.90;;;;;;5053906;28;20032;-75
2021/08/12 03:20:34;;;;;;;1.50;1.10;;;13.10;99.90;;;;;;5053549;28;20040;-75
2021/08/12 03:23:00;;;;;;;2.78;1.30;;;13.10;99.90;;;;;;5053475;28;20025;-76
2021/08/12 03:25:26;;;;;;;2.50;1.30;;;13.10;99.90;;;;;;5056535;28;20074;-76
2021/08/12 03:27:51;;;;;;;1.48;1.17;;;13.00;99.90;;;;;;5073340;28;20031;-77
2021/08/12 03:30:18;;;;;;;1.33;1.23;;;13.00;99.90;;;;;;5073417;28;20115;-68
2021/08/12 03:32:44;;;;;;;1.65;0.90;;;13.00;99.90;;;;;;5073103;28;20040;-66
2021/08/12 03:35:10;;;;;;;18.08;2.30;;;13.30;99.90;;;;;;5073353;28;20036;-72
2021/08/12 03:37:36;;;;;;;1.27;1.00;;;14.40;99.90;;;;;;5073271;28;20020;-68
2021/08/12 03:40:03;;;;;;;1.20;1.10;;;14.70;99.90;;;;;;5073098;28;20017;-68
2021/08/12 03:42:28;;;;;;;1.10;1.05;;;14.40;99.90;;;;;;5073014;28;20461;-67
2021/08/12 03:44:54;;;;;;;1.58;1.17;;;14.20;99.90;;;;;;5072936;28;20108;-67
2021/08/12 03:47:20;;;;;;;3.30;1.10;;;14.20;99.90;;;;;;5073299;28;20020;-67
2021/08/12 03:49:46;;;;;;;2.78;1.08;;;14.20;99.90;;;;;;5072810;28;20028;-67
2021/08/12 03:52:11;;;;;;;1.10;1.00;;;14.20;99.90;;;;;;5072844;28;20085;-67
2021/08/12 03:54:37;;;;;;;3.30;1.08;;;14.20;99.90;;;;;;5073340;28;20017;-67
2021/08/12 03:57:07;;;;;;;1.08;0.88;;;14.30;99.90;;;;;;5072836;28;20029;-67
2021/08/12 03:59:33;;;;;;;2.28;0.95;;;14.40;99.90;;;;;;5073029;28;20025;-67
2021/08/12 04:01:59;;;;;;;1.33;0.85;;;14.40;99.90;;;;;;5072898;28;20089;-67
2021/08/12 04:04:26;;;;;;;1.67;0.90;;;14.40;99.90;;;;;;5067208;28;20041;-67
2021/08/12 04:06:52;;;;;;;3.05;1.10;;;14.30;99.90;;;;;;5072330;28;20111;-69
2021/08/12 04:09:17;;;;;;;1.42;0.98;;;14.30;99.90;;;;;;5072998;28;20158;-70
2021/08/12 04:11:43;;;;;;;2.58;1.10;;;14.30;99.90;;;;;;5072801;28;20028;-69
2021/08/12 04:14:09;;;;;;;2.22;1.00;;;14.30;99.90;;;;;;5072366;28;20047;-68
2021/08/12 04:16:35;;;;;;;0.80;0.80;;;14.40;99.90;;;;;;5072802;28;20025;-67
2021/08/12 04:19:02;;;;;;;0.90;0.75;;;14.60;99.90;;;;;;5072536;28;20024;-68
2021/08/12 04:21:27;;;;;;;3.90;1.20;;;14.80;99.90;;;;;;5064322;28;20021;-68
2021/08/12 04:23:53;;;;;;;1.50;0.93;;;15.10;99.90;;;;;;5061553;28;20449;-68
2021/08/12 04:26:19;;;;;;;1.23;0.85;;;15.50;99.90;;;;;;5053339;28;20037;-68
2021/08/12 04:28:44;;;;;;;2.28;0.85;;;16.00;99.90;;;;;;5052219;28;20029;-71
2021/08/12 04:31:10;;;;;;;3.28;0.80;;;16.40;99.90;;;;;;5052277;28;20024;-68
2021/08/12 04:33:36;;;;;;;0.98;0.70;;;16.80;99.90;;;;;;5060212;28;20412;-68
2021/08/12 04:36:02;;;;;;;5.32;0.77;;;17.00;99.90;;;;;;5062315;28;20012;-70
2021/08/12 04:38:27;;;;;;;0.70;0.70;;;17.40;99.90;;;;;;5060460;28;20032;-68
2021/08/12 04:40:54;;;;;;;2.50;0.82;;;17.70;99.90;;;;;;5058174;28;20103;-68
2021/08/12 04:43:20;;;;;;;0.68;0.60;;;17.90;99.90;;;;;;5061904;28;20020;-67
2021/08/12 04:45:45;;;;;;;0.52;0.52;;;18.20;99.90;;;;;;5069265;28;20556;-68
2021/08/12 04:48:13;;;;;;;0.73;0.73;;;18.40;99.90;;;;;;5072003;28;20097;-68
2021/08/12 04:50:38;;;;;;;0.50;0.50;;;18.70;99.90;;;;;;5072005;28;20056;-68
2021/08/12 04:53:05;;;;;;;2.28;0.73;;;18.80;99.90;;;;;;5064172;28;20368;-68
2021/08/12 04:55:31;;;;;;;1.48;0.75;;;19.10;99.90;;;;;;5054540;28;20043;-68
2021/08/12 04:57:57;;;;;;;0.82;0.80;;;19.40;99.90;;;;;;5052033;28;20033;-67
2021/08/12 05:00:23;;;;;;;0.60;0.60;;;19.60;99.90;;;;;;5051663;28;20017;-70
2021/08/12 05:02:49;;;;;;;0.75;0.50;;;19.80;99.90;;;;;;5051932;28;20540;-66
2021/08/12 05:05:15;;;;;;;2.00;0.60;;;20.00;99.90;;;;;;5051914;28;20029;-67
2021/08/12 05:07:40;;;;;;;0.52;0.50;;;20.20;99.90;;;;;;5052032;28;20028;-67
2021/08/12 05:10:07;;;;;;;0.57;0.57;;;20.30;99.40;;;;;;5051767;28;20384;-66
2021/08/12 05:12:32;;;;;;;1.50;0.68;;;20.50;99.10;;;;;;5056874;28;20055;-67
2021/08/12 05:14:59;;;;;;;2.85;0.50;;;20.80;97.90;;;;;;5050350;28;20025;-66
2021/08/12 05:17:25;;;;;;;2.15;0.50;;;21.10;96.70;;;;;;5051803;28;20063;-67
2021/08/12 05:19:51;;;;;;;1.23;0.88;;;21.20;96.50;;;;;;5051654;28;20452;-66
2021/08/12 05:22:21;;;;;;;0.55;0.47;;;21.40;95.60;;;;;;5051914;28;20057;-70
2021/08/12 05:24:48;;;;;;;1.73;0.60;;;21.70;94.90;;;;;;5059649;28;20384;-70
2021/08/12 05:27:13;;;;;;;8.00;0.82;;;21.70;93.90;;;;;;5061539;28;20077;-70
2021/08/12 05:29:39;;;;;;;5.22;0.40;;;21.80;93.70;;;;;;5062630;28;20033;-70
2021/08/12 05:32:05;;;;;;;3.42;0.63;;;21.90;93.20;;;;;;5068455;28;20488;-68
2021/08/12 05:34:31;;;;;;;0.60;0.40;;;22.10;92.70;;;;;;5071672;28;20028;-68
2021/08/12 05:36:56;;;;;;;6.00;0.98;;;22.30;91.90;;;;;;5071674;28;20115;-69
2021/08/12 05:39:22;;;;;;;3.13;0.50;;;22.40;91.50;;;;;;5071643;28;20430;-70
2021/08/12 05:41:48;;;;;;;0.60;0.60;;;22.50;91.10;;;;;;5071770;28;20021;-68
2021/08/12 05:44:14;;;;;;;0.50;0.50;;;22.60;91.10;;;;;;5071088;28;20028;-68
2021/08/12 05:46:39;;;;;;;10.40;0.80;;;22.90;90.40;;;;;;5071787;28;20024;-70
2021/08/12 05:49:05;;;;;;;0.50;0.35;;;23.00;90.00;;;;;;5071348;28;20392;-70
2021/08/12 05:51:31;;;;;;;5.90;0.85;;;22.80;89.10;;;;;;5070748;28;20377;-68
2021/08/12 05:53:58;;;;;;;0.68;0.40;;;22.80;90.00;;;;;;5071722;28;20060;-68
2021/08/12 05:56:23;;;;;;;2.83;0.50;;;23.00;89.10;;;;;;5071447;28;20028;-68
2021/08/12 05:58:49;;;;;;;1.75;0.30;;;23.10;88.00;;;;;;5071291;28;20051;-68
2021/08/12 06:01:15;;;;;;;3.55;0.32;;;23.30;86.30;;;;;;5071538;28;20070;-68
2021/08/12 06:03:40;;;;;;;1.13;0.50;;;23.30;85.60;;;;;;5071287;28;20028;-68
2021/08/12 06:06:06;;;;;;;0.43;0.40;;;23.50;84.90;;;;;;5071165;28;20082;-68
2021/08/12 06:08:32;;;;;;;0.98;0.40;;;23.60;84.70;;;;;;5071060;28;20031;-68
2021/08/12 06:10:57;;;;;;;2.42;0.30;;;23.70;83.40;;;;;;5072288;28;20055;-68
2021/08/12 06:13:23;;;;;;;1.48;0.20;;;23.80;83.00;;;;;;5074698;28;20029;-68
2021/08/12 06:15:49;;;;;;;0.30;0.22;;;23.80;81.00;;;;;;5075159;28;20040;-68
2021/08/12 06:18:15;;;;;;;0.30;0.30;;;23.70;81.70;;;;;;5074799;28;20028;-68
2021/08/12 06:20:42;;;;;;;3.00;0.40;;;23.80;81.50;;;;;;5074655;28;20029;-68
2021/08/12 06:23:09;;;;;;;0.25;0.20;;;23.90;80.50;;;;;;5074404;28;20476;-68
2021/08/12 06:25:36;;;;;;;6.30;0.50;;;24.10;80.20;;;;;;5074713;28;20480;-68
2021/08/12 06:28:02;;;;;;;8.73;0.40;;;24.20;79.70;;;;;;5074364;28;20025;-68
2021/08/12 06:30:27;;;;;;;2.60;0.25;;;24.30;79.60;;;;;;5074485;28;20537;-68
2021/08/12 06:32:53;;;;;;;0.43;0.22;;;24.40;79.10;;;;;;5074233;28;20174;-68
2021/08/12 06:35:20;;;;;;;0.35;0.20;;;24.50;78.90;;;;;;5074746;28;20163;-69
2021/08/12 06:37:48;;;;;;;0.65;0.20;;;24.60;77.00;;;;;;5074356;28;20035;-68
2021/08/12 06:40:18;;;;;;;2.35;0.30;;;24.70;76.20;;;;;;5074525;28;20024;-68
2021/08/12 06:42:45;;;;;;;0.40;0.20;;;24.80;76.10;;;;;;5072996;28;20040;-68
2021/08/12 06:45:12;;;;;;;7.40;0.50;;;24.90;76.10;;;;;;5074037;28;20060;-68
2021/08/12 06:47:38;;;;;;;1.27;0.20;;;24.90;75.30;;;;;;5074297;28;20484;-68
2021/08/12 06:50:05;;;;;;;3.03;0.30;;;24.90;74.20;;;;;;5073952;28;20051;-68
2021/08/12 06:52:31;;;;;;;1.13;0.20;;;24.70;75.20;;;;;;5074584;28;20128;-69
2021/08/12 06:54:57;;;;;;;5.88;0.30;;;24.50;75.10;;;;;;5074322;28;20031;-67
2021/08/12 06:57:22;;;;;;;0.10;0.08;;;24.40;74.80;;;;;;5074082;28;20028;-68
2021/08/12 06:59:48;;;;;;;0.10;0.10;;;24.50;73.70;;;;;;5074388;28;20077;-68
2021/08/12 07:02:14;;;;;;;0.22;0.10;;;24.30;74.10;;;;;;5073946;28;20513;-68
2021/08/12 07:04:40;;;;;;;0.28;0.10;;;24.20;73.40;;;;;;5074001;28;20020;-68
2021/08/12 07:07:05;;;;;;;0.40;0.10;;;24.10;73.90;;;;;;5073768;28;20059;-68
2021/08/12 07:09:31;;;;;;;0.73;0.10;;;24.10;73.70;;;;;;5073859;28;20031;-68
2021/08/12 07:11:57;;;;;;;0.10;0.10;;;24.00;73.50;;;;;;5073712;28;20024;-68
2021/08/12 07:14:23;;;;;;;1.00;0.10;;;23.90;73.90;;;;;;5073626;28;20115;-68
2021/08/12 07:16:49;;;;;;;0.20;0.10;;;23.90;73.50;;;;;;5073761;28;20021;-68
2021/08/12 07:19:15;;;;;;;19.63;1.85;;;23.80;74.10;;;;;;5073408;28;20031;-68
2021/08/12 07:21:41;;;;;;;0.75;0.20;;;23.80;73.00;;;;;;5073374;28;20080;-69
2021/08/12 07:24:08;;;;;;;0.10;0.10;;;24.00;73.00;;;;;;5073473;28;20077;-70
2021/08/12 07:26:34;;;;;;;1.75;0.13;;;24.10;72.70;;;;;;5073609;28;20075;-70
2021/08/12 07:29:00;;;;;;;1.33;0.32;;;24.10;71.70;;;;;;5073316;28;20039;-70
2021/08/12 07:31:26;;;;;;;0.63;0.20;;;24.20;72.30;;;;;;5073640;28;20111;-71
2021/08/12 07:33:52;;;;;;;0.28;0.10;;;24.30;72.10;;;;;;5073393;28;20361;-69
2021/08/12 07:36:17;;;;;;;1.02;0.20;;;24.30;71.50;;;;;;5073239;28;20029;-69
2021/08/12 07:38:43;;;;;;;0.38;0.20;;;24.10;70.80;;;;;;5073513;28;20024;-69
2021/08/12 07:41:09;;;;;;;0.85;0.10;;;23.80;71.20;;;;;;5073366;28;20132;-69
2021/08/12 07:43:35;;;;;;;1.13;0.10;;;23.40;70.50;;;;;;5073381;28;20017;-69
2021/08/12 07:46:00;;;;;;;0.50;0.30;;;23.10;72.20;;;;;;5073041;28;20503;-69
2021/08/12 07:48:26;;;;;;;1.65;0.10;;;22.90;72.90;;;;;;5072988;28;20539;-69
2021/08/12 07:50:53;;;;;;;1.67;0.17;;;22.90;73.20;;;;;;5072846;28;20049;-69
2021/08/12 07:53:19;;;;;;;2.65;0.22;;;22.80;73.00;;;;;;5072611;28;20511;-69
2021/08/12 07:55:44;;;;;;;0.10;0.10;;;22.90;73.90;;;;;;5072994;28;20032;-69
2021/08/12 07:58:10;;;;;;;1.45;0.10;;;22.90;73.30;;;;;;5073001;28;20130;-68
2021/08/12 08:00:36;;;;;;;0.05;0.05;;;22.80;72.40;;;;;;5072895;28;20044;-68
2021/08/12 08:03:02;;;;;;;0.38;0.10;;;22.60;73.00;;;;;;5072648;28;20072;-68
2021/08/12 08:05:29;;;;;;;0.43;0.00;;;22.50;72.90;;;;;;5072907;28;20021;-69
2021/08/12 08:07:55;;;;;;;0.10;0.10;;;22.40;74.30;;;;;;5072768;28;20483;-68
2021/08/12 08:10:26;;;;;;;0.20;0.10;;;22.30;74.20;;;;;;5072589;28;20025;-69
2021/08/12 08:12:52;;;;;;;0.00;0.00;;;22.30;74.70;;;;;;5072674;28;20036;-69
2021/08/12 08:15:21;;;;;;;0.10;0.10;;;22.30;75.30;;;;;;5072415;28;20017;-69
2021/08/12 08:17:47;;;;;;;0.20;0.10;;;22.40;75.30;;;;;;5072436;28;20028;-69
2021/08/12 08:20:14;;;;;;;1.35;0.10;;;22.50;75.60;;;;;;5072288;28;20052;-69
2021/08/12 08:22:40;;;;;;;4.03;0.20;;;22.50;76.80;;;;;;5072643;28;20060;-69
2021/08/12 08:25:08;;;;;;;1.55;0.10;;;22.50;75.90;;;;;;5072176;28;20025;-69
2021/08/12 08:27:34;;;;;;;0.03;0.03;;;22.50;76.60;;;;;;5072553;28;20025;-69
2021/08/12 08:30:00;;;;;;;0.30;0.10;;;22.40;75.80;;;;;;5072512;28;20078;-69
2021/08/12 08:32:26;;;;;;;0.32;0.10;;;22.40;75.90;;;;;;5072499;28;20037;-69
2021/08/12 08:34:53;;;;;;;0.35;0.00;;;22.40;76.10;;;;;;5071927;28;20021;-68
2021/08/12 08:37:19;;;;;;;0.10;0.10;;;22.40;74.80;;;;;;5072448;28;20031;-68
2021/08/12 08:39:45;;;;;;;3.15;0.20;;;22.30;75.60;;;;;;5072086;28;20025;-70
2021/08/12 08:42:12;;;;;;;2.17;0.10;;;22.20;76.20;;;;;;5071960;28;20029;-70
2021/08/12 08:44:40;;;;;;;0.13;0.10;;;22.20;76.20;;;;;;5072334;28;20029;-69
2021/08/12 08:47:08;;;;;;;7.18;0.20;;;22.10;75.90;;;;;;5072231;28;20035;-69
2021/08/12 08:49:37;;;;;;;7.60;0.38;;;22.10;77.20;;;;;;5071895;28;20017;-67
2021/08/12 08:52:04;;;;;;;0.10;0.10;;;22.20;78.30;;;;;;5071796;28;20373;-73
2021/08/12 08:54:32;;;;;;;2.85;0.10;;;22.20;77.40;;;;;;5071872;28;20044;-73
2021/08/12 08:56:59;;;;;;;16.33;0.55;;;22.20;77.80;;;;;;5071927;28;20427;-68
2021/08/12 08:59:26;;;;;;;0.00;0.00;;;22.20;77.80;;;;;;5071912;28;20598;-69
2021/08/12 09:01:52;;;;;;;0.10;0.10;;;22.20;77.00;;;;;;5071868;28;20031;-67
2021/08/12 09:04:18;;;;;;;0.00;0.00;;;22.20;76.80;;;;;;5071701;28;20459;-68
2021/08/12 09:06:44;;;;;;;0.10;0.10;;;22.10;75.40;;;;;;5072204;28;20177;-68
2021/08/12 09:09:10;;;;;;;0.80;0.40;;;22.10;77.40;;;;;;5071545;28;20059;-68
2021/08/12 09:11:37;;;;;;;2.53;0.10;;;22.00;77.50;;;;;;5072067;28;20051;-67
2021/08/12 09:14:30;;;;;;;0.38;0.10;;;22.10;79.20;;;;;;5071798;28;20029;-70
2021/08/12 09:16:56;;;;;;;0.25;0.10;;;22.20;79.00;;;;;;5067771;28;20062;-69
2021/08/12 09:19:22;;;;;;;3.03;0.20;;;22.20;78.40;;;;;;5071030;28;20091;-68
2021/08/12 09:21:50;;;;;;;1.63;0.10;;;22.30;79.10;;;;;;5057311;28;20025;-69
2021/08/12 09:24:16;;;;;;;0.00;0.00;;;22.40;78.20;;;;;;5051497;28;20021;-70
2021/08/12 09:26:43;;;;;;;1.95;0.08;;;22.40;78.70;;;;;;5051739;28;20032;-70
2021/08/12 09:29:10;;;;;;;2.35;0.10;;;22.40;77.00;;;;;;5051422;28;20369;-67
2021/08/12 09:32:04;;;;;;;0.00;0.00;;;22.40;77.70;;;;;;5051863;28;20040;-71
2021/08/12 09:34:43;;;;;;;1.45;0.10;;;22.40;76.10;;;;;;5052111;28;20116;-71
2021/08/12 09:37:09;;;;;;;0.60;0.10;;;22.40;76.40;;;;;;5051507;28;20059;-71
2021/08/12 09:39:36;;;;;;;0.10;0.10;;;22.40;77.00;;;;;;5051543;28;20074;-71
2021/08/12 09:42:04;;;;;;;0.98;0.20;;;22.30;76.00;;;;;;5051141;28;20029;-71
2021/08/12 09:44:38;;;;;;;0.52;0.20;;;22.30;78.30;;;;;;5071063;28;20119;-71
2021/08/12 09:47:08;;;;;;;0.20;0.10;;;22.40;76.70;;;;;;5075089;28;20051;-71
2021/08/12 09:49:54;;;;;;;17.05;0.45;;;22.30;77.10;;;;;;5074801;28;20028;-71
2021/08/12 09:52:37;;;;;;;4.18;0.10;;;22.30;75.90;;;;;;5075181;28;20037;-72
2021/08/12 09:55:17;;;;;;;5.05;0.55;;;22.40;75.90;;;;;;5075140;28;20430;-74
2021/08/12 09:58:04;;;;;;;0.75;0.10;;;22.40;76.70;;;;;;5075195;28;20056;-70
2021/08/12 10:00:38;;;;;;;0.65;0.10;;;22.40;75.90;;;;;;5074282;28;20055;-69
2021/08/12 10:03:22;;;;;;;1.02;0.10;;;22.30;77.20;;;;;;5074928;28;20035;-70
2021/08/12 10:05:49;;;;;;;2.50;0.20;;;22.40;77.70;;;;;;5060412;28;20412;-70
2021/08/12 10:08:25;;;;;;;0.90;0.20;;;22.40;76.60;;;;;;5054770;28;20023;-70
2021/08/12 10:10:51;;;;;;;8.80;0.65;;;22.50;77.40;;;;;;5055144;28;20431;-71
2021/08/12 10:13:17;;;;;;;14.75;0.60;;;22.50;78.70;;;;;;5054299;28;20037;-71
2021/08/12 10:15:48;;;;;;;3.25;0.10;;;22.60;77.50;;;;;;5054949;28;20074;-71
2021/08/12 10:18:19;;;;;;;1.55;0.20;;;22.70;76.60;;;;;;5054673;28;20059;-71
2021/08/12 10:20:48;;;;;;;3.92;0.20;;;22.70;77.20;;;;;;5054928;28;20388;-71
2021/08/12 10:23:14;;;;;;;1.08;0.00;;;22.70;77.40;;;;;;5054646;28;20051;-71
2021/08/12 10:25:40;;;;;;;0.17;0.10;;;22.80;76.40;;;;;;5054652;28;20588;-71
2021/08/12 10:28:09;;;;;;;0.52;0.17;;;22.70;76.30;;;;;;5054744;28;20060;-71
2021/08/12 10:30:36;;;;;;;0.05;0.05;;;22.70;75.60;;;;;;5054848;28;20025;-71
2021/08/12 10:33:07;;;;;;;14.63;0.88;;;22.70;76.00;;;;;;5054409;28;20037;-71
2021/08/12 10:35:35;;;;;;;2.45;0.10;;;22.80;75.40;;;;;;5054562;28;20447;-71
2021/08/12 10:38:03;;;;;;;0.52;0.20;;;22.90;75.50;;;;;;5054473;28;20016;-71
2021/08/12 10:40:33;;;;;;;1.92;0.55;;;23.00;75.00;;;;;;5054464;28;20472;-71
2021/08/12 10:43:01;;;;;;;0.55;0.10;;;23.00;75.00;;;;;;5054658;28;20025;-71
2021/08/12 10:45:28;;;;;;;0.03;0.03;;;23.00;74.80;;;;;;5054454;28;20039;-71
2021/08/12 10:47:56;;;;;;;2.08;0.20;;;23.00;75.30;;;;;;5054215;28;20670;-71
2021/08/12 10:50:31;;;;;;;0.43;0.08;;;23.00;75.70;;;;;;5053902;28;20407;-71
2021/08/12 10:53:12;;;;;;;0.43;0.20;;;23.00;75.40;;;;;;5053858;28;20041;-71
2021/08/12 10:55:38;;;;;;;0.10;0.10;;;23.10;74.80;;;;;;5054081;28;20102;-71
2021/08/12 10:58:29;;;;;;;0.13;0.13;;;23.10;73.80;;;;;;5053459;28;20551;-70
2021/08/12 11:00:56;;;;;;;1.27;0.10;;;23.20;74.50;;;;;;5053912;28;20140;-70
2021/08/12 11:03:34;;;;;;;0.10;0.10;;;23.20;74.70;;;;;;5053713;28;20224;-70
2021/08/12 11:06:06;;;;;;;0.10;0.10;;;23.20;73.70;;;;;;5054245;28;20031;-70
2021/08/12 11:11:21;;;;;;;0.70;0.10;;;23.30;71.40;;;;;;5053524;28;20028;-71
2021/08/12 11:14:01;;;;;;;2.17;0.20;;;23.40;71.80;;;;;;5053698;28;20098;-70
2021/08/12 11:16:49;;;;;;;0.22;0.05;;;23.40;71.90;;;;;;5053594;28;20017;-70
2021/08/12 11:19:21;;;;;;;5.95;0.30;;;23.50;71.90;;;;;;5053284;28;20029;-70
2021/08/12 11:21:48;;;;;;;0.25;0.10;;;23.40;71.60;;;;;;5053587;28;20083;-70
2021/08/12 11:24:23;;;;;;;0.15;0.10;;;23.40;71.80;;;;;;5053344;28;20485;-70
2021/08/12 11:26:48;;;;;;;0.40;0.10;;;23.30;72.60;;;;;;5053480;28;20033;-70
2021/08/12 11:29:23;;;;;;;0.25;0.10;;;23.20;72.30;;;;;;5053255;28;20018;-70
2021/08/12 11:31:48;;;;;;;0.17;0.10;;;23.20;72.80;;;;;;5053364;28;20511;-70
2021/08/12 11:34:17;;;;;;;0.95;0.17;;;23.10;72.50;;;;;;5053128;28;20112;-71
2021/08/12 11:37:13;;;;;;;0.10;0.10;;;23.00;72.80;;;;;;5053262;28;20021;-70
2021/08/12 11:39:46;;;;;;;0.10;0.10;;;23.00;74.00;;;;;;5052972;28;20479;-70
2021/08/12 11:42:31;;;;;;;0.08;0.00;;;23.00;73.70;;;;;;5053348;28;20017;-70
2021/08/12 11:45:06;;;;;;;0.15;0.10;;;23.00;74.00;;;;;;5053072;28;20028;-70
2021/08/12 11:47:32;;;;;;;0.10;0.10;;;23.00;74.60;;;;;;5053479;28;20045;-73
2021/08/12 11:50:00;;;;;;;0.10;0.10;;;23.10;74.10;;;;;;5052696;28;20091;-71
2021/08/12 11:52:32;;;;;;;0.10;0.10;;;23.20;75.00;;;;;;5052781;28;20484;-70
2021/08/12 11:55:20;;;;;;;0.08;0.00;;;23.20;74.30;;;;;;5053112;28;20033;-70
2021/08/12 11:57:56;;;;;;;0.20;0.10;;;23.20;72.90;;;;;;5052854;28;20047;-70
2021/08/12 12:00:23;;;;;;;2.65;0.28;;;23.20;73.40;;;;;;5052545;28;20021;-71
2021/08/12 12:02:57;;;;;;;8.27;0.50;;;23.10;75.90;;;;;;5053006;28;20458;-71
2021/08/12 12:05:50;;;;;;;0.50;0.20;;;22.80;79.80;;;;;;5052590;28;20036;-71
2021/08/12 12:08:27;;;;;;;0.82;0.30;;;22.60;82.20;;;;;;5051628;28;20044;-71
2021/08/12 12:10:53;;;;;;;0.57;0.15;;;22.50;85.80;;;;;;5052841;28;20044;-70
2021/08/12 12:13:21;;;;;;;1.15;0.10;;;22.50;84.60;;;;;;5052284;28;20066;-70
2021/08/12 12:15:52;;;;;;;0.93;0.13;;;22.50;84.60;;;;;;5052518;28;20032;-70
2021/08/12 12:18:31;;;;;;;1.20;0.10;;;22.50;85.20;;;;;;5052689;28;20033;-71
2021/08/12 12:21:12;;;;;;;0.20;0.20;;;22.60;86.50;;;;;;5052798;28;20108;-70
2021/08/12 12:23:43;;;;;;;0.25;0.20;;;22.60;84.70;;;;;;5052503;28;20292;-70
2021/08/12 12:26:24;;;;;;;0.50;0.20;;;22.60;83.90;;;;;;5052728;28;20032;-70
2021/08/12 12:28:51;;;;;;;0.32;0.13;;;22.60;79.60;;;;;;5052431;28;20021;-70
2021/08/12 12:31:19;;;;;;;1.55;0.30;;;22.60;81.50;;;;;;5052203;28;20017;-71
2021/08/12 12:34:02;;;;;;;1.15;0.28;;;22.70;82.00;;;;;;5052104;28;20499;-70
2021/08/12 12:36:39;;;;;;;1.65;0.15;;;22.80;84.20;;;;;;5052206;28;20025;-70
2021/08/12 12:39:04;;;;;;;0.57;0.20;;;22.80;82.50;;;;;;5052401;28;20061;-71
2021/08/12 12:41:30;;;;;;;0.20;0.20;;;22.90;81.10;;;;;;5052075;28;20079;-71
2021/08/12 12:44:13;;;;;;;1.75;0.20;;;22.90;80.60;;;;;;5052015;28;20048;-70
2021/08/12 12:46:39;;;;;;;3.03;0.20;;;22.90;79.70;;;;;;5052136;28;20017;-71
2021/08/12 12:49:29;;;;;;;1.90;0.32;;;22.90;78.20;;;;;;5051875;28;20396;-70
2021/08/12 12:52:08;;;;;;;1.70;0.20;;;22.90;79.20;;;;;;5051731;28;20110;-72
2021/08/12 12:54:35;;;;;;;0.75;0.20;;;23.00;77.60;;;;;;5051892;28;20028;-70
2021/08/12 12:57:01;;;;;;;2.83;0.20;;;23.00;76.60;;;;;;5052565;28;20036;-70
2021/08/12 12:59:27;;;;;;;0.10;0.10;;;23.00;74.60;;;;;;5051763;28;20029;-70
2021/08/12 13:01:57;;;;;;;1.17;0.20;;;23.00;74.10;;;;;;5051856;28;20120;-70
2021/08/12 13:04:24;;;;;;;0.57;0.30;;;23.00;73.80;;;;;;5052004;28;20029;-70
2021/08/12 13:06:51;;;;;;;0.35;0.20;;;23.00;73.30;;;;;;5051941;28;20542;-70
2021/08/12 13:09:37;;;;;;;0.22;0.10;;;23.10;73.30;;;;;;5051784;28;20028;-70
2021/08/12 13:12:28;;;;;;;0.40;0.30;;;23.00;72.90;;;;;;5051783;28;20454;-70
2021/08/12 13:15:16;;;;;;;0.20;0.20;;;23.00;72.50;;;;;;5051696;28;20461;-70
2021/08/12 13:17:43;;;;;;;0.30;0.20;;;23.00;71.10;;;;;;5051822;28;20480;-70
2021/08/12 13:20:13;;;;;;;0.57;0.20;;;23.00;70.80;;;;;;5052924;28;20388;-70
2021/08/12 13:22:45;;;;;;;1.00;0.10;;;22.90;69.60;;;;;;5055965;28;20028;-70
2021/08/12 13:25:31;;;;;;;0.20;0.20;;;23.00;69.10;;;;;;5055743;28;20127;-70